sensor_id;sensor_type;location;lat;lon;timestamp;temperature;humidity
58983;DHT22;44771;49.982;8.560;2023-11-22T00:02:21;3.70;99.90
58983;DHT22;44771;49.982;8.560;2023-11-22T00:07:25;3.60;99.90
58983;DHT22;44771;49.982;8.560;2023-11-22T00:12:29;3.60;99.90
58983;DHT22;44771;49.982;8.560;2023-11-22T00:17:32;3.60;99.90
58983;DHT22;44771;49.982;8.560;2023-11-22T00:22:46;3.60;99.90
58983;DHT22;44771;49.982;8.560;2023-11-22T00:27:48;3.50;99.90
58983;DHT22;44771;49.982;8.560;2023-11-22T00:32:50;3.40;99.90
58983;DHT22;44771;49.982;8.560;2023-11-22T00:37:53;3.30;99.90
58983;DHT22;44771;49.982;8.560;2023-11-22T00:42:55;3.00;99.90
58983;DHT22;44771;49.982;8.560;2023-11-22T00:47:56;3.00;99.90
58983;DHT22;44771;49.982;8.560;2023-11-22T00:53:00;3.00;99.90
58983;DHT22;44771;49.982;8.560;2023-11-22T00:58:01;2.90;99.90
58983;DHT22;44771;49.982;8.560;2023-11-22T01:03:03;2.80;99.90
58983;DHT22;44771;49.982;8.560;2023-11-22T01:08:07;2.80;99.90
58983;DHT22;44771;49.982;8.560;2023-11-22T01:13:09;2.80;99.90
58983;DHT22;44771;49.982;8.560;2023-11-22T01:18:11;2.70;99.90
58983;DHT22;44771;49.982;8.560;2023-11-22T01:23:14;2.60;99.90
58983;DHT22;44771;49.982;8.560;2023-11-22T01:28:16;2.40;99.90
58983;DHT22;44771;49.982;8.560;2023-11-22T01:33:18;2.20;99.90
58983;DHT22;44771;49.982;8.560;2023-11-22T01:38:21;2.10;99.90
58983;DHT22;44771;49.982;8.560;2023-11-22T01:43:23;2.00;99.90
58983;DHT22;44771;49.982;8.560;2023-11-22T01:48:28;2.00;99.90
58983;DHT22;44771;49.982;8.560;2023-11-22T01:53:32;2.00;99.90
58983;DHT22;44771;49.982;8.560;2023-11-22T01:58:34;2.10;99.90
58983;DHT22;44771;49.982;8.560;2023-11-22T02:03:36;2.00;99.90
58983;DHT22;44771;49.982;8.560;2023-11-22T02:08:39;2.00;99.90
58983;DHT22;44771;49.982;8.560;2023-11-22T02:13:43;2.10;99.90
58983;DHT22;44771;49.982;8.560;2023-11-22T02:18:45;2.30;99.90
58983;DHT22;44771;49.982;8.560;2023-11-22T02:23:51;2.30;99.90
58983;DHT22;44771;49.982;8.560;2023-11-22T02:28:56;2.30;99.90
58983;DHT22;44771;49.982;8.560;2023-11-22T02:33:57;2.30;99.90
58983;DHT22;44771;49.982;8.560;2023-11-22T02:39:01;2.40;99.90
58983;DHT22;44771;49.982;8.560;2023-11-22T02:44:04;2.20;99.90
58983;DHT22;44771;49.982;8.560;2023-11-22T02:49:08;2.10;99.90
58983;DHT22;44771;49.982;8.560;2023-11-22T02:54:15;2.00;99.90
58983;DHT22;44771;49.982;8.560;2023-11-22T02:59:17;1.80;99.90
58983;DHT22;44771;49.982;8.560;2023-11-22T03:04:19;1.80;99.90
58983;DHT22;44771;49.982;8.560;2023-11-22T03:09:22;1.80;99.90
58983;DHT22;44771;49.982;8.560;2023-11-22T03:14:24;1.80;99.90
58983;DHT22;44771;49.982;8.560;2023-11-22T03:19:26;1.80;99.90
58983;DHT22;44771;49.982;8.560;2023-11-22T03:24:29;1.60;99.90
58983;DHT22;44771;49.982;8.560;2023-11-22T03:29:31;1.60;99.90
58983;DHT22;44771;49.982;8.560;2023-11-22T03:34:33;1.50;99.90
58983;DHT22;44771;49.982;8.560;2023-11-22T03:39:36;1.40;99.90
58983;DHT22;44771;49.982;8.560;2023-11-22T03:44:38;1.50;99.90
58983;DHT22;44771;49.982;8.560;2023-11-22T03:49:39;1.50;99.90
58983;DHT22;44771;49.982;8.560;2023-11-22T03:54:43;1.50;99.90
58983;DHT22;44771;49.982;8.560;2023-11-22T03:59:45;1.40;99.90
58983;DHT22;44771;49.982;8.560;2023-11-22T04:04:46;1.50;99.90
58983;DHT22;44771;49.982;8.560;2023-11-22T04:09:50;1.50;99.90
58983;DHT22;44771;49.982;8.560;2023-11-22T04:14:51;1.60;99.90
58983;DHT22;44771;49.982;8.560;2023-11-22T04:19:54;1.60;99.90
58983;DHT22;44771;49.982;8.560;2023-11-22T04:24:57;1.60;99.90
58983;DHT22;44771;49.982;8.560;2023-11-22T04:29:59;1.40;99.90
58983;DHT22;44771;49.982;8.560;2023-11-22T04:35:01;1.60;99.90
58983;DHT22;44771;49.982;8.560;2023-11-22T04:40:05;1.60;99.90
58983;DHT22;44771;49.982;8.560;2023-11-22T04:45:08;1.50;99.90
58983;DHT22;44771;49.982;8.560;2023-11-22T04:50:10;1.50;99.90
58983;DHT22;44771;49.982;8.560;2023-11-22T04:55:13;1.50;99.90
58983;DHT22;44771;49.982;8.560;2023-11-22T05:00:15;1.30;99.90
58983;DHT22;44771;49.982;8.560;2023-11-22T05:05:17;1.20;99.90
58983;DHT22;44771;49.982;8.560;2023-11-22T05:10:21;1.00;99.90
58983;DHT22;44771;49.982;8.560;2023-11-22T05:15:23;1.00;99.90
58983;DHT22;44771;49.982;8.560;2023-11-22T05:20:24;1.00;99.90
58983;DHT22;44771;49.982;8.560;2023-11-22T05:25:28;1.00;99.90
58983;DHT22;44771;49.982;8.560;2023-11-22T05:30:29;1.10;99.90
58983;DHT22;44771;49.982;8.560;2023-11-22T05:35:32;1.30;99.90
58983;DHT22;44771;49.982;8.560;2023-11-22T05:40:45;1.50;99.90
58983;DHT22;44771;49.982;8.560;2023-11-22T05:45:46;1.60;99.90
58983;DHT22;44771;49.982;8.560;2023-11-22T05:50:48;1.60;99.90
58983;DHT22;44771;49.982;8.560;2023-11-22T05:55:52;1.50;99.90
58983;DHT22;44771;49.982;8.560;2023-11-22T06:00:53;1.30;99.90
58983;DHT22;44771;49.982;8.560;2023-11-22T06:05:55;1.30;99.90
58983;DHT22;44771;49.982;8.560;2023-11-22T06:10:58;1.30;99.90
58983;DHT22;44771;49.982;8.560;2023-11-22T06:16:05;1.30;99.90
58983;DHT22;44771;49.982;8.560;2023-11-22T06:21:07;1.30;99.90
58983;DHT22;44771;49.982;8.560;2023-11-22T06:26:11;1.20;99.90
58983;DHT22;44771;49.982;8.560;2023-11-22T06:31:13;1.10;99.90
58983;DHT22;44771;49.982;8.560;2023-11-22T06:36:14;1.10;99.90
58983;DHT22;44771;49.982;8.560;2023-11-22T06:41:18;1.20;99.90
58983;DHT22;44771;49.982;8.560;2023-11-22T06:46:20;1.20;99.90
58983;DHT22;44771;49.982;8.560;2023-11-22T06:51:21;1.10;99.90
58983;DHT22;44771;49.982;8.560;2023-11-22T06:56:24;1.00;99.90
58983;DHT22;44771;49.982;8.560;2023-11-22T07:01:26;0.80;99.90
58983;DHT22;44771;49.982;8.560;2023-11-22T07:06:28;0.70;99.90
58983;DHT22;44771;49.982;8.560;2023-11-22T07:11:31;0.60;99.90
58983;DHT22;44771;49.982;8.560;2023-11-22T07:16:33;0.50;99.90
58983;DHT22;44771;49.982;8.560;2023-11-22T07:21:35;0.50;99.90
58983;DHT22;44771;49.982;8.560;2023-11-22T07:26:38;0.60;99.90
58983;DHT22;44771;49.982;8.560;2023-11-22T07:31:40;0.70;99.90
58983;DHT22;44771;49.982;8.560;2023-11-22T07:36:42;0.70;99.90
58983;DHT22;44771;49.982;8.560;2023-11-22T07:41:45;0.80;99.90
58983;DHT22;44771;49.982;8.560;2023-11-22T07:46:47;1.00;99.90
58983;DHT22;44771;49.982;8.560;2023-11-22T07:51:49;1.00;99.90
58983;DHT22;44771;49.982;8.560;2023-11-22T07:56:52;1.10;99.90
58983;DHT22;44771;49.982;8.560;2023-11-22T08:01:54;1.10;99.90
58983;DHT22;44771;49.982;8.560;2023-11-22T08:06:56;1.10;99.90
58983;DHT22;44771;49.982;8.560;2023-11-22T08:11:59;1.20;99.90
58983;DHT22;44771;49.982;8.560;2023-11-22T08:17:01;1.30;99.90
58983;DHT22;44771;49.982;8.560;2023-11-22T08:22:03;1.30;99.90
58983;DHT22;44771;49.982;8.560;2023-11-22T08:27:06;1.30;99.90
58983;DHT22;44771;49.982;8.560;2023-11-22T08:32:08;1.40;99.90
58983;DHT22;44771;49.982;8.560;2023-11-22T08:37:10;1.50;99.90
58983;DHT22;44771;49.982;8.560;2023-11-22T08:42:13;1.60;99.90
58983;DHT22;44771;49.982;8.560;2023-11-22T08:47:16;1.60;99.90
58983;DHT22;44771;49.982;8.560;2023-11-22T08:52:18;1.70;99.90
58983;DHT22;44771;49.982;8.560;2023-11-22T08:57:21;1.80;99.90
58983;DHT22;44771;49.982;8.560;2023-11-22T09:02:23;1.80;99.90
58983;DHT22;44771;49.982;8.560;2023-11-22T09:07:25;1.90;99.90
58983;DHT22;44771;49.982;8.560;2023-11-22T09:12:28;2.00;99.90
58983;DHT22;44771;49.982;8.560;2023-11-22T09:17:30;2.00;99.90
58983;DHT22;44771;49.982;8.560;2023-11-22T09:22:32;2.10;99.90
58983;DHT22;44771;49.982;8.560;2023-11-22T09:27:36;2.30;99.90
58983;DHT22;44771;49.982;8.560;2023-11-22T09:32:40;2.30;99.90
58983;DHT22;44771;49.982;8.560;2023-11-22T09:37:45;2.20;99.90
58983;DHT22;44771;49.982;8.560;2023-11-22T09:42:49;2.20;99.90
58983;DHT22;44771;49.982;8.560;2023-11-22T09:47:52;2.30;99.90
58983;DHT22;44771;49.982;8.560;2023-11-22T09:52:55;2.20;99.90
58983;DHT22;44771;49.982;8.560;2023-11-22T09:58:01;2.00;99.90
58983;DHT22;44771;49.982;8.560;2023-11-22T10:03:03;2.00;99.90
58983;DHT22;44771;49.982;8.560;2023-11-22T10:08:05;2.20;99.90
58983;DHT22;44771;49.982;8.560;2023-11-22T10:13:08;2.30;99.90
58983;DHT22;44771;49.982;8.560;2023-11-22T10:18:10;2.40;99.90
58983;DHT22;44771;49.982;8.560;2023-11-22T10:23:14;2.50;99.90
58983;DHT22;44771;49.982;8.560;2023-11-22T10:28:17;2.60;99.90
58983;DHT22;44771;49.982;8.560;2023-11-22T10:33:20;2.60;99.90
58983;DHT22;44771;49.982;8.560;2023-11-22T10:38:21;2.60;99.90
58983;DHT22;44771;49.982;8.560;2023-11-22T10:43:27;2.70;99.90
58983;DHT22;44771;49.982;8.560;2023-11-22T10:48:31;2.60;99.90
58983;DHT22;44771;49.982;8.560;2023-11-22T10:53:34;2.60;99.90
58983;DHT22;44771;49.982;8.560;2023-11-22T10:58:42;2.50;99.90
58983;DHT22;44771;49.982;8.560;2023-11-22T11:03:53;2.70;99.90
58983;DHT22;44771;49.982;8.560;2023-11-22T11:08:59;2.40;99.90
58983;DHT22;44771;49.982;8.560;2023-11-22T11:14:03;2.50;99.90
58983;DHT22;44771;49.982;8.560;2023-11-22T11:19:06;2.50;99.90
58983;DHT22;44771;49.982;8.560;2023-11-22T11:24:08;2.50;99.90
58983;DHT22;44771;49.982;8.560;2023-11-22T11:29:29;2.70;99.90
58983;DHT22;44771;49.982;8.560;2023-11-22T11:34:31;2.60;99.90
58983;DHT22;44771;49.982;8.560;2023-11-22T11:39:33;2.50;99.90
58983;DHT22;44771;49.982;8.560;2023-11-22T11:44:37;2.40;99.90
58983;DHT22;44771;49.982;8.560;2023-11-22T11:49:38;2.40;99.90
58983;DHT22;44771;49.982;8.560;2023-11-22T11:54:40;2.50;99.90
58983;DHT22;44771;49.982;8.560;2023-11-22T11:59:44;2.50;99.90
58983;DHT22;44771;49.982;8.560;2023-11-22T12:04:46;2.60;99.90
58983;DHT22;44771;49.982;8.560;2023-11-22T12:09:48;2.70;99.90
58983;DHT22;44771;49.982;8.560;2023-11-22T12:14:52;2.80;99.90
58983;DHT22;44771;49.982;8.560;2023-11-22T12:20:09;2.70;99.90
58983;DHT22;44771;49.982;8.560;2023-11-22T12:25:11;2.90;99.90
58983;DHT22;44771;49.982;8.560;2023-11-22T12:35:40;2.80;99.90
58983;DHT22;44771;49.982;8.560;2023-11-22T12:40:44;3.10;99.90
58983;DHT22;44771;49.982;8.560;2023-11-22T12:45:46;3.20;99.90
58983;DHT22;44771;49.982;8.560;2023-11-22T12:50:49;3.00;99.90
58983;DHT22;44771;49.982;8.560;2023-11-22T12:55:52;3.10;99.90
58983;DHT22;44771;49.982;8.560;2023-11-22T13:00:55;3.20;99.80
58983;DHT22;44771;49.982;8.560;2023-11-22T13:06:00;3.10;99.90
58983;DHT22;44771;49.982;8.560;2023-11-22T13:11:03;3.20;99.90
58983;DHT22;44771;49.982;8.560;2023-11-22T13:16:05;3.10;99.90
58983;DHT22;44771;49.982;8.560;2023-11-22T13:21:12;3.30;99.90
58983;DHT22;44771;49.982;8.560;2023-11-22T13:26:14;3.30;99.90
58983;DHT22;44771;49.982;8.560;2023-11-22T13:31:18;3.00;99.90
58983;DHT22;44771;49.982;8.560;2023-11-22T13:36:21;2.60;99.90
58983;DHT22;44771;49.982;8.560;2023-11-22T13:41:23;2.30;99.90
58983;DHT22;44771;49.982;8.560;2023-11-22T13:46:25;2.40;99.90
58983;DHT22;44771;49.982;8.560;2023-11-22T13:51:28;2.50;98.60
58983;DHT22;44771;49.982;8.560;2023-11-22T13:56:30;2.60;99.30
58983;DHT22;44771;49.982;8.560;2023-11-22T14:01:32;2.80;99.90
58983;DHT22;44771;49.982;8.560;2023-11-22T14:06:36;2.90;99.90
58983;DHT22;44771;49.982;8.560;2023-11-22T14:11:37;3.00;99.90
58983;DHT22;44771;49.982;8.560;2023-11-22T14:16:39;2.80;99.90
58983;DHT22;44771;49.982;8.560;2023-11-22T14:21:42;2.70;99.90
58983;DHT22;44771;49.982;8.560;2023-11-22T14:26:44;2.60;99.90
58983;DHT22;44771;49.982;8.560;2023-11-22T14:31:46;2.40;99.90
58983;DHT22;44771;49.982;8.560;2023-11-22T14:36:49;2.70;99.90
58983;DHT22;44771;49.982;8.560;2023-11-22T14:41:51;2.80;99.40
58983;DHT22;44771;49.982;8.560;2023-11-22T14:46:53;2.80;99.90
58983;DHT22;44771;49.982;8.560;2023-11-22T14:51:56;2.70;99.50
58983;DHT22;44771;49.982;8.560;2023-11-22T14:56:58;2.60;99.10
58983;DHT22;44771;49.982;8.560;2023-11-22T15:02:00;2.30;99.90
58983;DHT22;44771;49.982;8.560;2023-11-22T15:07:03;2.00;99.90
58983;DHT22;44771;49.982;8.560;2023-11-22T15:12:05;1.90;99.90
58983;DHT22;44771;49.982;8.560;2023-11-22T15:17:07;1.70;99.90
58983;DHT22;44771;49.982;8.560;2023-11-22T15:22:10;1.60;99.90
58983;DHT22;44771;49.982;8.560;2023-11-22T15:27:12;1.40;99.90
58983;DHT22;44771;49.982;8.560;2023-11-22T15:32:14;1.20;99.90
58983;DHT22;44771;49.982;8.560;2023-11-22T15:37:17;0.90;99.90
58983;DHT22;44771;49.982;8.560;2023-11-22T15:42:19;0.60;99.90
58983;DHT22;44771;49.982;8.560;2023-11-22T15:47:21;0.40;99.90
58983;DHT22;44771;49.982;8.560;2023-11-22T15:52:24;0.20;99.90
58983;DHT22;44771;49.982;8.560;2023-11-22T15:57:26;0.10;99.90
58983;DHT22;44771;49.982;8.560;2023-11-22T16:02:28;-0.10;99.90
58983;DHT22;44771;49.982;8.560;2023-11-22T16:07:31;-0.20;99.90
58983;DHT22;44771;49.982;8.560;2023-11-22T16:12:33;-0.30;99.90
58983;DHT22;44771;49.982;8.560;2023-11-22T16:17:35;-0.30;99.90
58983;DHT22;44771;49.982;8.560;2023-11-22T16:22:41;-0.30;99.90
58983;DHT22;44771;49.982;8.560;2023-11-22T16:27:43;-0.20;99.90
58983;DHT22;44771;49.982;8.560;2023-11-22T16:32:45;-0.20;99.90
58983;DHT22;44771;49.982;8.560;2023-11-22T16:37:48;-0.30;99.90
58983;DHT22;44771;49.982;8.560;2023-11-22T16:42:50;-0.20;99.90
58983;DHT22;44771;49.982;8.560;2023-11-22T16:47:52;-0.20;99.90
58983;DHT22;44771;49.982;8.560;2023-11-22T16:52:55;-0.30;99.90
58983;DHT22;44771;49.982;8.560;2023-11-22T16:57:57;-0.30;99.90
58983;DHT22;44771;49.982;8.560;2023-11-22T17:03:02;-0.30;99.90
58983;DHT22;44771;49.982;8.560;2023-11-22T17:08:05;-0.40;99.90
58983;DHT22;44771;49.982;8.560;2023-11-22T17:13:07;-0.30;99.90
58983;DHT22;44771;49.982;8.560;2023-11-22T17:18:08;-0.30;99.90
58983;DHT22;44771;49.982;8.560;2023-11-22T17:23:12;-0.20;99.90
58983;DHT22;44771;49.982;8.560;2023-11-22T17:28:14;-0.20;99.90
58983;DHT22;44771;49.982;8.560;2023-11-22T17:33:16;-0.40;99.90
58983;DHT22;44771;49.982;8.560;2023-11-22T17:38:19;-0.60;99.90
58983;DHT22;44771;49.982;8.560;2023-11-22T17:43:21;-0.70;99.90
58983;DHT22;44771;49.982;8.560;2023-11-22T17:48:24;-0.80;99.90
58983;DHT22;44771;49.982;8.560;2023-11-22T17:53:30;-0.70;99.90
58983;DHT22;44771;49.982;8.560;2023-11-22T17:58:32;-0.70;99.90
58983;DHT22;44771;49.982;8.560;2023-11-22T18:03:34;-0.70;99.90
58983;DHT22;44771;49.982;8.560;2023-11-22T18:08:37;-0.70;99.90
58983;DHT22;44771;49.982;8.560;2023-11-22T18:13:39;-0.70;99.90
58983;DHT22;44771;49.982;8.560;2023-11-22T18:18:40;-0.80;99.90
58983;DHT22;44771;49.982;8.560;2023-11-22T18:23:44;-0.90;99.90
58983;DHT22;44771;49.982;8.560;2023-11-22T18:28:46;-0.90;99.90
58983;DHT22;44771;49.982;8.560;2023-11-22T18:33:47;-1.10;99.90
58983;DHT22;44771;49.982;8.560;2023-11-22T18:38:51;-1.20;99.90
58983;DHT22;44771;49.982;8.560;2023-11-22T18:43:54;-1.20;99.90
58983;DHT22;44771;49.982;8.560;2023-11-22T18:48:58;-1.30;99.90
58983;DHT22;44771;49.982;8.560;2023-11-22T18:54:01;-1.30;99.90
58983;DHT22;44771;49.982;8.560;2023-11-22T18:59:03;-1.30;99.90
58983;DHT22;44771;49.982;8.560;2023-11-22T19:04:05;-1.20;99.90
58983;DHT22;44771;49.982;8.560;2023-11-22T19:09:08;-1.20;99.90
58983;DHT22;44771;49.982;8.560;2023-11-22T19:14:10;-1.10;99.90
58983;DHT22;44771;49.982;8.560;2023-11-22T19:19:12;-0.70;99.90
58983;DHT22;44771;49.982;8.560;2023-11-22T19:24:15;-0.50;99.90
58983;DHT22;44771;49.982;8.560;2023-11-22T19:29:17;-0.30;99.90
58983;DHT22;44771;49.982;8.560;2023-11-22T19:34:19;-0.10;99.90
58983;DHT22;44771;49.982;8.560;2023-11-22T19:39:22;0.00;99.90
58983;DHT22;44771;49.982;8.560;2023-11-22T19:44:24;0.20;99.90
58983;DHT22;44771;49.982;8.560;2023-11-22T19:49:26;0.30;99.90
58983;DHT22;44771;49.982;8.560;2023-11-22T19:54:29;0.30;99.90
58983;DHT22;44771;49.982;8.560;2023-11-22T19:59:34;0.20;99.90
58983;DHT22;44771;49.982;8.560;2023-11-22T20:04:36;0.20;99.90
58983;DHT22;44771;49.982;8.560;2023-11-22T20:09:40;0.00;99.90
58983;DHT22;44771;49.982;8.560;2023-11-22T20:14:41;-0.10;99.90
58983;DHT22;44771;49.982;8.560;2023-11-22T20:19:43;-0.20;99.90
58983;DHT22;44771;49.982;8.560;2023-11-22T20:24:47;-0.20;99.90
58983;DHT22;44771;49.982;8.560;2023-11-22T20:29:48;-0.20;99.90
58983;DHT22;44771;49.982;8.560;2023-11-22T20:34:53;-0.10;99.90
58983;DHT22;44771;49.982;8.560;2023-11-22T20:39:56;-0.10;99.90
58983;DHT22;44771;49.982;8.560;2023-11-22T20:44:58;-0.30;99.90
58983;DHT22;44771;49.982;8.560;2023-11-22T20:49:59;-0.40;99.90
58983;DHT22;44771;49.982;8.560;2023-11-22T20:55:03;-0.40;99.90
58983;DHT22;44771;49.982;8.560;2023-11-22T21:00:08;-0.60;99.90
58983;DHT22;44771;49.982;8.560;2023-11-22T21:05:09;-0.70;99.90
58983;DHT22;44771;49.982;8.560;2023-11-22T21:10:13;-0.70;99.90
58983;DHT22;44771;49.982;8.560;2023-11-22T21:15:15;-0.50;99.90
58983;DHT22;44771;49.982;8.560;2023-11-22T21:20:17;-0.40;99.90
58983;DHT22;44771;49.982;8.560;2023-11-22T21:25:21;-0.30;99.90
58983;DHT22;44771;49.982;8.560;2023-11-22T21:30:23;-0.30;99.90
58983;DHT22;44771;49.982;8.560;2023-11-22T21:35:25;-0.20;99.90
58983;DHT22;44771;49.982;8.560;2023-11-22T21:40:29;-0.20;99.90
58983;DHT22;44771;49.982;8.560;2023-11-22T21:45:36;-0.20;99.90
58983;DHT22;44771;49.982;8.560;2023-11-22T21:50:41;-0.10;99.90
58983;DHT22;44771;49.982;8.560;2023-11-22T21:55:44;0.00;99.90
58983;DHT22;44771;49.982;8.560;2023-11-22T22:00:46;0.10;99.90
58983;DHT22;44771;49.982;8.560;2023-11-22T22:05:48;0.20;99.90
58983;DHT22;44771;49.982;8.560;2023-11-22T22:10:51;0.30;99.90
58983;DHT22;44771;49.982;8.560;2023-11-22T22:15:53;0.30;99.90
58983;DHT22;44771;49.982;8.560;2023-11-22T22:20:55;0.30;99.90
58983;DHT22;44771;49.982;8.560;2023-11-22T22:25:59;0.30;99.90
58983;DHT22;44771;49.982;8.560;2023-11-22T22:31:01;0.40;99.90
58983;DHT22;44771;49.982;8.560;2023-11-22T22:36:03;0.40;99.90
58983;DHT22;44771;49.982;8.560;2023-11-22T22:41:07;0.50;99.90
58983;DHT22;44771;49.982;8.560;2023-11-22T22:46:09;0.40;99.90
58983;DHT22;44771;49.982;8.560;2023-11-22T22:51:11;0.30;99.90
58983;DHT22;44771;49.982;8.560;2023-11-22T22:56:17;0.20;99.90
58983;DHT22;44771;49.982;8.560;2023-11-22T23:01:19;0.20;99.90
58983;DHT22;44771;49.982;8.560;2023-11-22T23:06:22;0.20;99.90
58983;DHT22;44771;49.982;8.560;2023-11-22T23:11:36;0.10;99.90
58983;DHT22;44771;49.982;8.560;2023-11-22T23:16:47;0.10;99.90
58983;DHT22;44771;49.982;8.560;2023-11-22T23:21:49;0.20;99.90
58983;DHT22;44771;49.982;8.560;2023-11-22T23:26:52;0.20;99.90
58983;DHT22;44771;49.982;8.560;2023-11-22T23:31:54;0.20;99.90
58983;DHT22;44771;49.982;8.560;2023-11-22T23:36:56;0.20;99.90
58983;DHT22;44771;49.982;8.560;2023-11-22T23:42:00;0.10;99.90
58983;DHT22;44771;49.982;8.560;2023-11-22T23:47:01;0.10;99.90
58983;DHT22;44771;49.982;8.560;2023-11-22T23:52:04;0.10;99.90
58983;DHT22;44771;49.982;8.560;2023-11-22T23:57:07;0.10;99.90
